Estación de Quillota
Ultimos registro cada 15 minutos 69
| N° | Estación | Fecha / Hora | Temperatura | Humedad | Lluvia | Velocidad | Dirección | Radiación | Presion |
| 69 | Quillota | 07-05-2026 17:00 | 19,8 | 58 | 0 | 4 | 221 | 58 | 1020,6 |
| 68 | Quillota | 07-05-2026 16:45 | 20,4 | 56 | 0 | 4 | 258 | 90 | 1020,6 |
| 67 | Quillota | 07-05-2026 16:30 | 20,9 | 51 | 0 | 4 | 240 | 125 | 1020,7 |
| 66 | Quillota | 07-05-2026 16:15 | 21,4 | 52 | 0 | 3,1 | 285 | 151 | 1020,6 |
| 65 | Quillota | 07-05-2026 16:00 | 21,7 | 51 | 0 | 1,8 | 294 | 174 | 1020,7 |
| 64 | Quillota | 07-05-2026 15:45 | 21,6 | 52 | 0 | 1,8 | 275 | 195 | 1020,4 |
| 63 | Quillota | 07-05-2026 15:30 | 21,3 | 53 | 0 | 1,3 | 230 | 216 | 1020,5 |
| 62 | Quillota | 07-05-2026 15:15 | 21,4 | 53 | 0 | 1,3 | 255 | 236 | 1020,6 |
| 61 | Quillota | 07-05-2026 15:00 | 21,1 | 53 | 0 | 1,3 | 231 | 257 | 1020,6 |
| 60 | Quillota | 07-05-2026 14:45 | 21,1 | 54 | 0 | 1,3 | 298 | 272 | 1020,6 |
| 59 | Quillota | 07-05-2026 14:30 | 20,7 | 56 | 0 | 1,8 | 278 | 287 | 1021,1 |
| 58 | Quillota | 07-05-2026 14:15 | 20,3 | 58 | 0 | 1,8 | 329 | 301 | 1021 |
| 57 | Quillota | 07-05-2026 14:00 | 19,7 | 60 | 0 | 0 | 237 | 311 | 1021,4 |
| 56 | Quillota | 07-05-2026 13:45 | 19,7 | 62 | 0 | 1,3 | 231 | 323 | 1021,7 |
| 55 | Quillota | 07-05-2026 13:30 | 19,3 | 63 | 0 | 2,7 | 282 | 334 | 1022 |
| 54 | Quillota | 07-05-2026 13:15 | 19,2 | 64 | 0 | 2,2 | 163 | 343 | 1022,5 |
| 53 | Quillota | 07-05-2026 13:00 | 18,9 | 64 | 0 | 3,1 | 295 | 357 | 1022,5 |
| 52 | Quillota | 07-05-2026 12:45 | 18,6 | 66 | 0 | 0,9 | 238 | 345 | 1022,8 |
| 51 | Quillota | 07-05-2026 12:30 | 18,1 | 67 | 0 | 3,1 | 279 | 345 | 1023 |
| 50 | Quillota | 07-05-2026 12:15 | 17,7 | 68 | 0 | 0,9 | 250 | 343 | 1023,3 |
| 49 | Quillota | 07-05-2026 12:00 | 17,3 | 70 | 0 | 1,3 | 243 | 339 | 1023,4 |
| 48 | Quillota | 07-05-2026 11:45 | 16,9 | 73 | 0 | 0,9 | 247 | 330 | 1023,4 |
| 47 | Quillota | 07-05-2026 11:30 | 16,3 | 73 | 0 | 1,3 | 190 | 322 | 1023,6 |
| 46 | Quillota | 07-05-2026 11:15 | 15,8 | 74 | 0 | 0,4 | 317 | 311 | 1023,6 |
| 45 | Quillota | 07-05-2026 11:00 | 15,6 | 76 | 0 | 0,9 | 340 | 297 | 1023,6 |
| 44 | Quillota | 07-05-2026 10:45 | 15,3 | 77 | 0 | 0,4 | 338 | 285 | 1023,9 |
| 43 | Quillota | 07-05-2026 10:30 | 15,3 | 78 | 0 | 0,4 | 335 | 269 | 1024,2 |
| 42 | Quillota | 07-05-2026 10:15 | 14,9 | 80 | 0 | 0 | 348 | 250 | 1024,2 |
| 41 | Quillota | 07-05-2026 10:00 | 14,4 | 83 | 0 | 0 | 330 | 227 | 1024,2 |
| 40 | Quillota | 07-05-2026 09:45 | 13,6 | 87 | 0 | 0,4 | 45 | 206 | 1024,2 |
| 39 | Quillota | 07-05-2026 09:30 | 12,7 | 89 | 0 | 0 | 350 | 183 | 1024,2 |
| 38 | Quillota | 07-05-2026 09:15 | 12,1 | 92 | 0 | 0,9 | 342 | 174 | 1023,8 |
| 37 | Quillota | 07-05-2026 09:00 | 11,3 | 93 | 0 | 0,4 | 273 | 149 | 1024 |
| 36 | Quillota | 07-05-2026 08:45 | 10,6 | 94 | 0 | 0 | 102 | 120 | 1023,7 |
| 35 | Quillota | 07-05-2026 08:30 | 9,6 | 94 | 0 | 0,4 | 185 | 90 | 1023,5 |
| 34 | Quillota | 07-05-2026 08:15 | 8,2 | 92 | 0 | 0 | 19 | 56 | 1023,5 |
| 33 | Quillota | 07-05-2026 08:00 | 8,4 | 91 | 0 | 0 | 19 | 11 | 1023,3 |
| 32 | Quillota | 07-05-2026 07:45 | 8,8 | 90 | 0 | 0,4 | 19 | 7 | 1023,2 |
| 31 | Quillota | 07-05-2026 07:30 | 9,4 | 91 | 0 | 0 | 185 | 0 | 1023,3 |
| 30 | Quillota | 07-05-2026 07:15 | 10,3 | 91 | 0 | 0 | 146 | 0 | 1023,1 |
| 29 | Quillota | 07-05-2026 07:00 | 10,7 | 91 | 0 | 0 | 77 | 0 | 1023 |
| 28 | Quillota | 07-05-2026 06:45 | 11,1 | 92 | 0 | 0,4 | 173 | 0 | 1023 |
| 27 | Quillota | 07-05-2026 06:30 | 11,1 | 92 | 0 | 0,4 | 159 | 0 | 1022,9 |
| 26 | Quillota | 07-05-2026 06:15 | 11,1 | 92 | 0 | 0 | 159 | 0 | 1022,6 |
| 25 | Quillota | 07-05-2026 06:00 | 11,1 | 92 | 0 | 0 | 159 | 0 | 1022,6 |
| 24 | Quillota | 07-05-2026 05:45 | 11,2 | 92 | 0 | 0,4 | 158 | 0 | 1022,7 |
| 23 | Quillota | 07-05-2026 05:30 | 11,2 | 92 | 0 | 0,4 | 159 | 0 | 1022,5 |
| 22 | Quillota | 07-05-2026 05:15 | 11,1 | 92 | 0 | 0 | 158 | 0 | 1022,4 |
| 21 | Quillota | 07-05-2026 05:00 | 11,1 | 92 | 0 | 0 | 159 | 0 | 1022,2 |
| 20 | Quillota | 07-05-2026 04:45 | 11,2 | 92 | 0 | 0 | 159 | 0 | 1022,1 |
| 19 | Quillota | 07-05-2026 04:30 | 11,3 | 92 | 0 | 0 | 160 | 0 | 1022,1 |
| 18 | Quillota | 07-05-2026 04:15 | 11,3 | 92 | 0 | 0,9 | 157 | 0 | 1022 |
| 17 | Quillota | 07-05-2026 04:00 | 11,3 | 92 | 0 | 0,4 | 34 | 0 | 1022 |
| 16 | Quillota | 07-05-2026 03:45 | 11,3 | 92 | 0 | 0 | 34 | 0 | 1022 |
| 15 | Quillota | 07-05-2026 03:30 | 11,3 | 91 | 0 | 0 | 279 | 0 | 1021,9 |
| 14 | Quillota | 07-05-2026 03:15 | 11,4 | 91 | 0 | 0 | 279 | 0 | 1022 |
| 13 | Quillota | 07-05-2026 03:00 | 11,3 | 91 | 0 | 0,4 | 279 | 0 | 1022,1 |
| 12 | Quillota | 07-05-2026 02:45 | 11,3 | 91 | 0 | 0 | 279 | 0 | 1022,2 |
| 11 | Quillota | 07-05-2026 02:30 | 11,3 | 91 | 0 | 0 | 279 | 0 | 1022,1 |
| 10 | Quillota | 07-05-2026 02:15 | 11,3 | 91 | 0 | 0,9 | 276 | 0 | 1022 |
| 9 | Quillota | 07-05-2026 02:00 | 11,8 | 92 | 0 | 0 | 156 | 0 | 1022 |
| 8 | Quillota | 07-05-2026 01:45 | 11,9 | 92 | 0 | 0 | 156 | 0 | 1021,7 |
| 7 | Quillota | 07-05-2026 01:30 | 11,9 | 92 | 0 | 0 | 65 | 0 | 1021,5 |
| 6 | Quillota | 07-05-2026 01:15 | 11,8 | 92 | 0 | 0 | 65 | 0 | 1021,5 |
| 5 | Quillota | 07-05-2026 01:00 | 11,9 | 92 | 0 | 0,4 | 50 | 0 | 1021,6 |
| 4 | Quillota | 07-05-2026 00:45 | 11,9 | 92 | 0 | 0,4 | 271 | 0 | 1021,7 |
| 3 | Quillota | 07-05-2026 00:30 | 11,9 | 92 | 0 | 0 | 270 | 0 | 1021,5 |
| 2 | Quillota | 07-05-2026 00:15 | 12,2 | 93 | 0 | 0,9 | 269 | 0 | 1021,4 |
| 1 | Quillota | 07-05-2026 00:00 | 12,7 | 93 | 0 | 0,4 | 234 | 0 | 1021,2 |